createdAt,value
2022-08-09T00:00:23.360Z,98979.16
2022-08-09T00:03:18.863Z,98984.00
2022-08-09T00:06:18.065Z,98985.41
2022-08-09T00:08:48.526Z,98982.09
2022-08-09T00:11:25.096Z,98986.69
2022-08-09T00:13:56.171Z,98974.19
2022-08-09T00:16:26.453Z,98988.19
2022-08-09T00:19:10.269Z,98980.22
2022-08-09T00:21:55.613Z,98986.69
2022-08-09T00:24:24.995Z,98990.28
2022-08-09T00:26:57.641Z,98999.78
2022-08-09T00:30:10.289Z,98985.56
2022-08-09T00:32:26.808Z,98992.16
2022-08-09T00:34:56.504Z,98990.53
2022-08-09T00:37:25.727Z,98992.94
2022-08-09T00:40:13.597Z,98988.31
2022-08-09T00:44:16.318Z,98991.38
2022-08-09T00:45:35.629Z,98994.50
2022-08-09T00:48:05.898Z,98998.63
2022-08-09T00:50:34.012Z,98997.72
2022-08-09T00:53:10.550Z,98995.50
2022-08-09T00:56:05.636Z,98998.16
2022-08-09T00:58:31.672Z,98999.06
2022-08-09T01:01:00.227Z,99005.41
2022-08-09T01:03:40.701Z,99000.44
2022-08-09T01:06:19.236Z,98998.81
2022-08-09T01:08:54.588Z,98998.91
2022-08-09T01:11:33.921Z,98998.19
2022-08-09T01:14:11.704Z,98995.66
2022-08-09T01:16:47.106Z,98995.94
2022-08-09T01:19:40.051Z,99003.19
2022-08-09T01:22:29.330Z,98996.25
2022-08-09T01:25:03.514Z,98999.22
2022-08-09T01:27:34.333Z,99001.81
2022-08-09T01:30:06.415Z,99000.75
2022-08-09T01:32:45.502Z,99003.69
2022-08-09T01:35:28.807Z,98997.03
2022-08-09T01:38:15.131Z,98997.94
2022-08-09T01:40:52.692Z,99001.69
2022-08-09T01:43:50.023Z,98997.75
2022-08-09T01:46:25.117Z,99009.13
2022-08-09T01:49:10.631Z,99004.59
2022-08-09T01:51:53.049Z,98997.41
2022-08-09T01:54:24.886Z,98994.38
2022-08-09T01:56:53.716Z,99009.44
2022-08-09T01:59:24.386Z,99004.72
2022-08-09T02:02:01.783Z,99011.59
2022-08-09T02:04:31.191Z,99013.22
2022-08-09T02:07:18.006Z,99010.06
2022-08-09T02:10:05.847Z,99009.59
2022-08-09T02:12:36.309Z,99017.50
2022-08-09T02:15:08.277Z,99008.44
2022-08-09T02:18:09.724Z,99017.28
2022-08-09T02:20:32.677Z,99015.81
2022-08-09T02:23:06.987Z,99015.06
2022-08-09T02:25:42.708Z,99010.50
2022-08-09T02:28:20.404Z,99016.31
2022-08-09T02:30:55.454Z,99007.72
2022-08-09T02:33:58.229Z,99010.66
2022-08-09T02:36:17.477Z,99006.44
2022-08-09T02:38:49.798Z,99008.41
2022-08-09T02:41:21.105Z,99007.34
2022-08-09T02:43:54.956Z,99016.75
2022-08-09T02:46:28.640Z,99012.09
2022-08-09T02:49:01.702Z,99022.56
2022-08-09T02:51:40.255Z,99016.25
2022-08-09T02:54:12.465Z,99015.56
2022-08-09T02:56:48.851Z,99021.34
2022-08-09T02:59:26.564Z,99016.91
2022-08-09T03:02:12.256Z,99017.41
2022-08-09T03:04:45.726Z,99022.09
2022-08-09T03:07:14.682Z,99020.88
2022-08-09T03:09:54.381Z,99027.19
2022-08-09T03:12:25.934Z,99034.13
2022-08-09T03:14:55.294Z,99025.06
2022-08-09T03:17:26.523Z,99020.53
2022-08-09T03:20:02.899Z,99032.59
2022-08-09T03:22:32.658Z,99019.13
2022-08-09T03:25:22.018Z,99014.16
2022-08-09T03:27:52.823Z,99023.56
2022-08-09T03:30:29.946Z,99013.66
2022-08-09T03:33:12.828Z,99012.63
2022-08-09T03:36:15.879Z,99014.03
2022-08-09T03:38:41.854Z,99018.28
2022-08-09T03:41:14.615Z,99021.06
2022-08-09T03:44:03.454Z,99016.13
2022-08-09T03:46:33.856Z,99014.69
2022-08-09T03:49:08.057Z,99015.53
2022-08-09T03:51:55.814Z,99016.69
2022-08-09T03:54:29.615Z,99019.59
2022-08-09T03:57:01.553Z,99021.53
2022-08-09T03:59:42.934Z,99018.44
2022-08-09T04:02:26.681Z,99018.16
2022-08-09T04:04:58.972Z,99018.69
2022-08-09T04:07:33.727Z,99024.97
2022-08-09T04:10:20.444Z,99020.06
2022-08-09T04:12:51.453Z,99021.69
2022-08-09T04:15:52.326Z,99020.81
2022-08-09T04:18:16.749Z,99019.19
2022-08-09T04:20:48.699Z,99025.91
2022-08-09T04:23:17.894Z,99024.13
2022-08-09T04:25:52.953Z,99028.44
2022-08-09T04:28:33.260Z,99030.28
2022-08-09T04:31:09.259Z,99039.50
2022-08-09T04:33:52.924Z,99033.72
2022-08-09T04:36:27.709Z,99041.28
2022-08-09T04:38:57.956Z,99033.50
2022-08-09T04:41:32.264Z,99032.81
2022-08-09T04:44:05.749Z,99039.22
2022-08-09T04:46:56.859Z,99038.19
2022-08-09T04:49:40.448Z,99042.19
2022-08-09T04:52:27.322Z,99043.63
2022-08-09T04:54:56.918Z,99047.16
2022-08-09T04:57:25.381Z,99049.59
2022-08-09T04:59:55.314Z,99034.28
2022-08-09T05:02:27.199Z,99049.47
2022-08-09T05:04:58.858Z,99048.06
2022-08-09T05:07:39.642Z,99051.50
2022-08-09T05:10:09.748Z,99055.28
2022-08-09T05:12:37.857Z,99050.88
2022-08-09T05:15:11.635Z,99050.56
2022-08-09T05:18:50.948Z,99052.94
2022-08-09T05:20:41.564Z,99055.72
2022-08-09T05:23:54.237Z,99053.00
2022-08-09T05:26:02.700Z,99059.38
2022-08-09T05:28:30.888Z,99053.31
2022-08-09T05:30:59.019Z,99051.97
2022-08-09T05:33:32.975Z,99055.31
2022-08-09T05:36:04.148Z,99061.75
2022-08-09T05:38:39.081Z,99058.25
2022-08-09T05:41:12.675Z,99053.16
2022-08-09T05:43:45.270Z,99059.78
2022-08-09T05:46:17.626Z,99055.53
2022-08-09T05:48:48.613Z,99062.31
2022-08-09T05:51:42.462Z,99062.31
2022-08-09T05:54:15.515Z,99066.06
2022-08-09T05:56:54.501Z,99061.03
2022-08-09T05:59:23.787Z,99059.78
2022-08-09T06:01:58.885Z,99057.31
2022-08-09T06:04:34.983Z,99059.56
2022-08-09T06:07:03.782Z,99062.47
2022-08-09T06:09:54.537Z,99064.34
2022-08-09T06:12:21.874Z,99066.66
2022-08-09T06:14:54.921Z,99072.44
2022-08-09T06:17:23.265Z,99066.00
2022-08-09T06:19:51.520Z,99075.16
2022-08-09T06:22:23.576Z,99070.69
2022-08-09T06:24:58.511Z,99076.63
2022-08-09T06:27:43.160Z,99071.81
2022-08-09T06:30:16.218Z,99057.34
2022-08-09T06:32:59.134Z,99070.75
2022-08-09T06:35:55.960Z,99066.78
2022-08-09T06:38:17.998Z,99062.41
2022-08-09T06:40:48.916Z,99069.09
2022-08-09T06:43:23.585Z,99064.59
2022-08-09T06:46:06.707Z,99059.72
2022-08-09T06:48:42.716Z,99058.56
2022-08-09T06:51:11.403Z,99066.66
2022-08-09T06:53:39.995Z,99061.06
2022-08-09T06:56:10.768Z,99062.78
2022-08-09T07:00:46.672Z,99062.44
2022-08-09T07:01:51.900Z,99067.41
2022-08-09T07:04:19.712Z,99069.69
2022-08-09T07:06:48.359Z,99079.91
2022-08-09T07:09:55.438Z,99070.34
2022-08-09T07:12:13.698Z,99071.66
2022-08-09T07:14:50.718Z,99060.19
2022-08-09T07:17:20.233Z,99062.22
2022-08-09T07:19:50.964Z,99066.97
2022-08-09T07:22:34.946Z,99064.38
2022-08-09T07:25:05.378Z,99079.28
2022-08-09T07:27:43.184Z,99073.19
2022-08-09T07:30:25.294Z,99067.09
2022-08-09T07:32:55.041Z,99078.00
2022-08-09T07:35:25.675Z,99078.34
2022-08-09T07:37:54.154Z,99078.25
2022-08-09T07:40:37.195Z,99084.25
2022-08-09T07:43:18.502Z,99075.03
2022-08-09T07:45:47.208Z,99079.38
2022-08-09T07:48:28.605Z,99083.09
2022-08-09T07:51:10.215Z,99086.97
2022-08-09T07:54:05.240Z,99087.31
2022-08-09T07:56:45.102Z,99080.03
2022-08-09T07:59:33.676Z,99075.41
2022-08-09T08:02:09.382Z,99077.72
2022-08-09T08:04:38.983Z,99078.16
2022-08-09T08:07:15.598Z,99082.78
2022-08-09T08:10:07.938Z,99076.34
2022-08-09T08:12:42.938Z,99081.94
2022-08-09T08:15:16.626Z,99081.50
2022-08-09T08:17:54.229Z,99079.09
2022-08-09T08:20:29.421Z,99086.50
2022-08-09T08:23:06.940Z,99092.72
2022-08-09T08:25:48.359Z,99080.13
2022-08-09T08:28:26.061Z,99080.28
2022-08-09T08:31:14.164Z,99079.50
2022-08-09T08:33:52.662Z,99081.19
2022-08-09T08:36:29.781Z,99082.22
2022-08-09T08:38:59.750Z,99087.44
2022-08-09T08:41:51.019Z,99091.56
2022-08-09T08:44:23.235Z,99081.31
2022-08-09T08:47:04.680Z,99092.13
2022-08-09T08:49:48.404Z,99071.34
2022-08-09T08:55:07.875Z,99089.06
2022-08-09T08:57:37.641Z,99085.31
2022-08-09T09:00:17.236Z,99080.66
2022-08-09T09:03:08.114Z,99093.75
2022-08-09T09:05:59.066Z,99102.22
2022-08-09T09:08:31.825Z,99103.25
2022-08-09T09:11:03.961Z,99082.50
2022-08-09T09:13:47.433Z,99093.16
2022-08-09T09:16:30.515Z,99087.31
2022-08-09T09:19:37.389Z,99084.94
2022-08-09T09:21:58.310Z,99081.88
2022-08-09T09:24:28.980Z,99080.66
2022-08-09T09:26:58.050Z,99088.13
2022-08-09T09:29:45.945Z,99085.94
2022-08-09T09:32:34.716Z,99094.06
2022-08-09T09:35:09.061Z,99091.72
2022-08-09T09:37:40.677Z,99088.28
2022-08-09T09:40:11.650Z,99090.44
2022-08-09T09:42:46.106Z,99097.88
2022-08-09T09:45:26.864Z,99086.13
2022-08-09T09:47:59.594Z,99085.56
2022-08-09T09:50:49.768Z,99088.59
2022-08-09T09:53:25.065Z,99076.47
2022-08-09T09:56:30.866Z,99080.75
2022-08-09T09:58:59.336Z,99088.69
2022-08-09T10:01:31.374Z,99070.59
2022-08-09T10:04:15.966Z,99071.06
2022-08-09T10:06:52.102Z,99075.88
2022-08-09T10:09:24.041Z,99076.16
2022-08-09T10:12:14.599Z,99064.38
2022-08-09T10:14:48.771Z,99065.81
2022-08-09T10:17:50.586Z,99068.34
2022-08-09T10:20:15.109Z,99064.16
2022-08-09T10:22:45.344Z,99069.50
2022-08-09T10:25:15.331Z,99065.06
2022-08-09T10:27:55.943Z,99075.09
2022-08-09T10:34:07.656Z,99065.88
2022-08-09T10:36:05.514Z,99063.03
2022-08-09T10:38:56.252Z,99058.81
2022-08-09T10:41:28.432Z,99056.56
2022-08-09T10:44:01.397Z,99056.38
2022-08-09T10:46:57.313Z,99069.22
2022-08-09T10:49:42.761Z,99052.88
2022-08-09T10:52:36.344Z,99059.34
2022-08-09T10:55:27.790Z,99057.91
2022-08-09T10:57:58.645Z,99062.06
2022-08-09T11:00:37.267Z,99054.72
2022-08-09T11:03:27.986Z,99044.19
2022-08-09T11:06:22.726Z,99047.53
2022-08-09T11:08:53.496Z,99046.16
2022-08-09T11:11:24.608Z,99047.56
2022-08-09T11:14:31.829Z,99037.69
2022-08-09T11:17:00.563Z,99029.66
2022-08-09T11:20:11.184Z,99031.06
2022-08-09T11:23:01.104Z,99033.84
2022-08-09T11:25:47.111Z,99021.56
2022-08-09T11:28:56.254Z,99024.13
2022-08-09T11:31:50.485Z,99020.31
2022-08-09T11:34:32.273Z,99011.91
2022-08-09T11:37:01.625Z,99018.22
2022-08-09T11:39:37.923Z,99007.81
2022-08-09T11:42:14.952Z,99017.38
2022-08-09T11:44:48.554Z,99028.25
2022-08-09T11:47:18.501Z,99009.59
2022-08-09T11:50:53.619Z,99021.72
2022-08-09T11:53:58.593Z,99025.25
2022-08-09T11:56:41.572Z,99023.75
2022-08-09T11:59:14.249Z,99016.16
2022-08-09T12:02:16.415Z,99014.34
2022-08-09T12:04:38.052Z,99025.31
2022-08-09T12:07:07.929Z,99020.13
2022-08-09T12:09:37.400Z,99023.59
2022-08-09T12:12:13.249Z,99014.09
2022-08-09T12:15:04.213Z,99024.84
2022-08-09T12:17:44.494Z,99017.75
2022-08-09T12:20:21.793Z,99014.25
2022-08-09T12:22:56.075Z,99009.66
2022-08-09T12:25:37.711Z,99007.88
2022-08-09T12:29:11.529Z,99016.97
2022-08-09T12:31:01.557Z,99012.81
2022-08-09T12:33:35.281Z,99011.13
2022-08-09T12:36:15.467Z,99021.69
2022-08-09T12:38:56.276Z,99016.97
2022-08-09T12:41:29.274Z,99021.78
2022-08-09T12:44:05.283Z,99023.78
2022-08-09T12:46:36.257Z,99023.97
2022-08-09T12:49:04.926Z,99021.03
2022-08-09T12:52:01.233Z,99018.22
2022-08-09T12:54:23.980Z,99019.97
2022-08-09T12:56:54.404Z,99017.38
2022-08-09T12:59:40.047Z,99014.56
2022-08-09T13:02:15.168Z,99009.53
2022-08-09T13:04:43.464Z,99025.91
2022-08-09T13:07:19.729Z,99017.28
2022-08-09T13:10:02.940Z,99017.47
2022-08-09T13:12:32.274Z,99024.63
2022-08-09T13:15:07.121Z,99020.09
2022-08-09T13:17:58.792Z,99019.16
2022-08-09T13:20:37.411Z,99021.13
2022-08-09T13:24:05.945Z,99013.63
2022-08-09T13:25:57.295Z,99020.09
2022-08-09T13:28:35.436Z,99016.19
2022-08-09T13:32:18.119Z,99022.25
2022-08-09T13:33:56.846Z,99017.00
2022-08-09T13:36:41.540Z,99018.88
2022-08-09T13:41:19.401Z,99004.84
2022-08-09T13:42:02.657Z,99012.06
2022-08-09T13:44:31.798Z,99008.84
2022-08-09T13:47:28.962Z,99006.09
2022-08-09T13:49:57.695Z,99005.91
2022-08-09T13:52:29.837Z,99007.81
2022-08-09T13:55:04.686Z,99012.47
2022-08-09T13:57:36.353Z,99012.78
2022-08-09T14:00:08.933Z,99012.09
2022-08-09T14:02:42.722Z,99015.75
2022-08-09T14:06:00.034Z,99008.63
2022-08-09T14:08:13.681Z,99014.50
2022-08-09T14:10:52.661Z,99009.56
2022-08-09T14:14:15.833Z,99008.13
2022-08-09T14:16:16.143Z,99010.53
2022-08-09T14:18:49.792Z,99017.91
2022-08-09T14:21:20.142Z,99018.94
2022-08-09T14:23:55.662Z,99014.34
2022-08-09T14:26:32.189Z,99024.78
2022-08-09T14:29:03.033Z,99016.91
2022-08-09T14:31:49.669Z,99022.09
2022-08-09T14:34:27.373Z,99013.59
2022-08-09T14:37:06.128Z,99019.72
2022-08-09T14:39:47.173Z,99013.28
2022-08-09T14:42:28.920Z,99014.66
2022-08-09T14:46:40.149Z,99008.84
2022-08-09T14:47:57.234Z,98999.56
2022-08-09T14:50:28.237Z,99013.38
2022-08-09T14:52:56.724Z,99011.13
2022-08-09T14:55:29.084Z,99025.91
2022-08-09T14:58:04.714Z,99033.19
2022-08-09T15:00:34.386Z,99020.25
2022-08-09T15:03:06.622Z,99018.66
2022-08-09T15:05:36.607Z,99017.47
2022-08-09T15:08:05.419Z,99014.59
2022-08-09T15:10:35.251Z,99004.81
2022-08-09T15:13:05.994Z,99024.31
2022-08-09T15:15:39.445Z,99019.25
2022-08-09T15:18:13.970Z,99011.22
2022-08-09T15:22:01.116Z,99019.25
2022-08-09T15:24:01.004Z,99019.84
2022-08-09T15:26:31.551Z,99017.97
2022-08-09T15:29:04.407Z,99026.75
2022-08-09T15:31:40.950Z,99017.19
2022-08-09T15:34:31.579Z,99020.72
2022-08-09T15:36:59.819Z,99016.84
2022-08-09T15:39:43.625Z,99031.38
2022-08-09T15:42:18.842Z,99021.59
2022-08-09T15:44:48.852Z,99022.59
2022-08-09T15:47:21.635Z,99023.31
2022-08-09T15:50:00.641Z,99029.75
2022-08-09T15:52:34.006Z,99020.59
2022-08-09T15:55:02.843Z,99021.69
2022-08-09T15:57:35.713Z,99023.69
2022-08-09T16:00:25.643Z,99025.91
2022-08-09T16:02:55.992Z,99017.81
2022-08-09T16:05:47.288Z,99018.59
2022-08-09T16:08:30.824Z,99031.75
2022-08-09T16:11:06.242Z,99028.94
2022-08-09T16:14:03.928Z,99021.16
2022-08-09T16:16:29.385Z,99023.25
2022-08-09T16:18:57.532Z,99036.34
2022-08-09T16:21:31.548Z,99027.84
2022-08-09T16:24:04.538Z,99019.66
2022-08-09T16:26:36.265Z,99021.38
2022-08-09T16:29:11.191Z,99028.06
2022-08-09T16:32:19.875Z,99023.69
2022-08-09T16:34:55.030Z,99027.47
2022-08-09T16:37:53.921Z,99033.09
2022-08-09T16:40:11.118Z,99026.22
2022-08-09T16:42:45.136Z,99034.28
2022-08-09T16:45:16.826Z,99032.78
2022-08-09T16:48:41.277Z,99020.03
2022-08-09T16:50:38.475Z,99035.84
2022-08-09T16:53:08.992Z,99025.19
2022-08-09T16:55:58.384Z,99027.59
2022-08-09T16:58:28.275Z,99018.59
2022-08-09T17:01:04.436Z,99029.84
2022-08-09T17:03:34.253Z,99035.38
2022-08-09T17:06:07.111Z,99038.03
2022-08-09T17:08:46.593Z,99038.13
2022-08-09T17:11:40.834Z,99036.09
2022-08-09T17:14:25.838Z,99034.91
2022-08-09T17:17:02.447Z,99040.72
2022-08-09T17:19:47.484Z,99045.53
2022-08-09T17:22:24.237Z,99048.13
2022-08-09T17:25:03.295Z,99043.53
2022-08-09T17:27:33.485Z,99048.53
2022-08-09T17:30:04.674Z,99043.38
2022-08-09T17:32:37.970Z,99050.41
2022-08-09T17:35:11.686Z,99060.41
2022-08-09T17:38:02.362Z,99056.06
2022-08-09T17:40:30.421Z,99048.75
2022-08-09T17:43:10.939Z,99054.41
2022-08-09T17:46:04.355Z,99058.66
2022-08-09T17:48:39.471Z,99056.84
2022-08-09T17:51:18.027Z,99055.44
2022-08-09T17:53:53.409Z,99067.06
2022-08-09T17:56:27.633Z,99067.13
2022-08-09T17:58:58.835Z,99063.13
2022-08-09T18:01:57.647Z,99067.00
2022-08-09T18:04:18.373Z,99075.84
2022-08-09T18:06:54.412Z,99065.00
2022-08-09T18:09:40.703Z,99059.91
2022-08-09T18:12:14.802Z,99073.00
2022-08-09T18:14:49.841Z,99069.91
2022-08-09T18:17:27.559Z,99076.69
2022-08-09T18:20:54.132Z,99079.84
2022-08-09T18:22:59.767Z,99091.59
2022-08-09T18:25:50.783Z,99095.84
2022-08-09T18:30:35.403Z,99094.06
2022-08-09T18:31:10.661Z,99104.63
2022-08-09T18:33:40.276Z,99104.13
2022-08-09T18:36:25.286Z,99098.50
2022-08-09T18:39:01.894Z,99102.03
2022-08-09T18:41:35.036Z,99104.09
2022-08-09T18:44:13.133Z,99103.50
2022-08-09T18:46:46.857Z,99102.59
2022-08-09T18:49:26.425Z,99109.41
2022-08-09T18:51:58.186Z,99100.19
2022-08-09T18:54:29.803Z,99110.88
2022-08-09T18:57:05.517Z,99112.84
2022-08-09T18:59:37.046Z,99114.38
2022-08-09T19:02:14.752Z,99122.28
2022-08-09T19:04:47.265Z,99118.72
2022-08-09T19:07:16.719Z,99117.47
2022-08-09T19:10:15.747Z,99115.03
2022-08-09T19:12:36.666Z,99124.94
2022-08-09T19:15:07.288Z,99127.22
2022-08-09T19:17:54.482Z,99125.03
2022-08-09T19:20:25.257Z,99120.41
2022-08-09T19:22:54.855Z,99130.84
2022-08-09T19:25:42.758Z,99123.66
2022-08-09T19:28:14.792Z,99130.78
2022-08-09T19:30:44.505Z,99123.38
2022-08-09T19:33:19.071Z,99126.34
2022-08-09T19:35:58.442Z,99126.38
2022-08-09T19:38:27.394Z,99125.84
2022-08-09T19:41:00.509Z,99121.59
2022-08-09T19:44:01.720Z,99127.56
2022-08-09T19:46:34.119Z,99131.50
2022-08-09T19:50:06.765Z,99130.03
2022-08-09T19:51:55.006Z,99130.38
2022-08-09T19:54:25.087Z,99136.28
2022-08-09T19:56:55.040Z,99136.97
2022-08-09T19:59:58.414Z,99126.69
2022-08-09T20:04:06.850Z,99139.59
2022-08-09T20:05:09.829Z,99136.84
2022-08-09T20:07:57.185Z,99140.22
2022-08-09T20:10:34.921Z,99136.50
2022-08-09T20:13:08.266Z,99142.91
2022-08-09T20:16:38.603Z,99139.81
2022-08-09T20:18:27.613Z,99146.91
2022-08-09T20:20:56.966Z,99143.63
2022-08-09T20:23:38.792Z,99140.66
2022-08-09T20:26:10.148Z,99144.34
2022-08-09T20:28:48.872Z,99140.00
2022-08-09T20:31:18.368Z,99143.97
2022-08-09T20:33:58.083Z,99148.56
2022-08-09T20:36:27.297Z,99144.94
2022-08-09T20:39:28.895Z,99139.78
2022-08-09T20:41:43.968Z,99148.09
2022-08-09T20:44:13.966Z,99146.56
2022-08-09T20:46:44.996Z,99145.81
2022-08-09T20:49:15.821Z,99145.31
2022-08-09T20:51:44.516Z,99144.78
2022-08-09T20:54:19.044Z,99147.22
2022-08-09T20:56:53.467Z,99146.56
2022-08-09T21:00:19.864Z,99149.09
2022-08-09T21:02:17.837Z,99149.78
2022-08-09T21:05:54.282Z,99151.13
2022-08-09T21:07:40.151Z,99150.97
2022-08-09T21:10:11.519Z,99153.66
2022-08-09T21:12:39.872Z,99153.78
2022-08-09T21:15:12.528Z,99156.75
2022-08-09T21:18:23.237Z,99156.31
2022-08-09T21:20:30.912Z,99160.69
2022-08-09T21:23:00.601Z,99163.75
2022-08-09T21:25:55.329Z,99165.19
2022-08-09T21:28:34.832Z,99168.16
2022-08-09T21:31:13.743Z,99162.59
2022-08-09T21:33:50.686Z,99163.28
2022-08-09T21:36:22.987Z,99170.72
2022-08-09T21:38:57.576Z,99168.72
2022-08-09T21:42:04.265Z,99160.41
2022-08-09T21:44:33.483Z,99163.66
2022-08-09T21:47:07.799Z,99170.03
2022-08-09T21:49:39.858Z,99157.69
2022-08-09T21:52:14.704Z,99167.59
2022-08-09T21:54:50.757Z,99167.06
2022-08-09T21:57:39.437Z,99161.59
2022-08-09T22:00:17.093Z,99163.78
2022-08-09T22:02:51.185Z,99158.75
2022-08-09T22:05:37.604Z,99161.41
2022-08-09T22:08:14.695Z,99156.06
2022-08-09T22:11:00.365Z,99156.75
2022-08-09T22:13:35.248Z,99154.97
2022-08-09T22:16:07.703Z,99152.91
2022-08-09T22:18:53.262Z,99155.25
2022-08-09T22:21:24.813Z,99148.28
2022-08-09T22:23:59.308Z,99149.94
2022-08-09T22:26:35.435Z,99156.50
2022-08-09T22:29:09.197Z,99156.41
2022-08-09T22:31:50.137Z,99147.94
2022-08-09T22:34:26.699Z,99146.66
2022-08-09T22:36:55.734Z,99149.88
2022-08-09T22:39:57.548Z,99146.38
2022-08-09T22:42:21.229Z,99150.66
2022-08-09T22:48:04.589Z,99149.78
2022-08-09T22:48:12.379Z,99153.31
2022-08-09T22:50:30.171Z,99160.09
2022-08-09T22:52:58.936Z,99151.78
2022-08-09T22:55:33.694Z,99149.44
2022-08-09T22:58:30.736Z,99153.41
2022-08-09T23:01:03.890Z,99148.53
2022-08-09T23:04:03.514Z,99152.50
2022-08-09T23:06:32.688Z,99146.16
2022-08-09T23:09:05.184Z,99145.47
2022-08-09T23:11:33.575Z,99155.78
2022-08-09T23:14:03.323Z,99159.03
2022-08-09T23:16:32.408Z,99154.59
2022-08-09T23:19:00.613Z,99152.97
2022-08-09T23:21:34.353Z,99153.88
2022-08-09T23:24:06.301Z,99144.69
2022-08-09T23:26:35.687Z,99154.38
2022-08-09T23:29:04.032Z,99148.88
2022-08-09T23:31:32.501Z,99152.03
2022-08-09T23:34:00.798Z,99155.75
2022-08-09T23:36:32.542Z,99151.88
2022-08-09T23:39:00.914Z,99145.53
2022-08-09T23:41:29.799Z,99149.59
2022-08-09T23:43:59.860Z,99148.16
2022-08-09T23:46:28.798Z,99147.13
2022-08-09T23:48:56.911Z,99141.56
2022-08-09T23:51:25.030Z,99147.03
2022-08-09T23:54:02.485Z,99148.31
2022-08-09T23:56:52.601Z,99144.81
2022-08-09T23:59:21.640Z,99146.56
